createdAt,value
2023-02-27T00:01:21.163Z,18.88
2023-02-27T00:03:48.374Z,17.55
2023-02-27T00:06:17.956Z,19.10
2023-02-27T00:08:45.211Z,15.38
2023-02-27T00:11:12.358Z,14.75
2023-02-27T00:13:40.229Z,15.27
2023-02-27T00:16:08.438Z,14.60
2023-02-27T00:18:35.806Z,14.05
2023-02-27T00:21:03.111Z,13.02
2023-02-27T00:23:30.165Z,13.23
2023-02-27T00:25:57.243Z,14.27
2023-02-27T00:28:24.341Z,16.08
2023-02-27T00:30:51.463Z,16.30
2023-02-27T00:33:18.605Z,14.95
2023-02-27T00:35:45.599Z,13.50
2023-02-27T00:38:12.606Z,14.07
2023-02-27T00:40:39.809Z,14.25
2023-02-27T00:43:06.882Z,14.68
2023-02-27T00:45:33.977Z,13.90
2023-02-27T00:48:01.064Z,14.60
2023-02-27T00:50:28.204Z,13.95
2023-02-27T00:52:55.289Z,13.63
2023-02-27T00:55:22.392Z,11.30
2023-02-27T00:57:49.459Z,10.38
2023-02-27T01:00:16.804Z,12.75
2023-02-27T01:02:43.816Z,11.30
2023-02-27T01:05:11.211Z,13.88
2023-02-27T01:07:38.856Z,11.82
2023-02-27T01:10:07.633Z,12.15
2023-02-27T01:12:34.794Z,11.80
2023-02-27T01:15:02.227Z,13.68
2023-02-27T01:17:29.301Z,12.35
2023-02-27T01:19:56.390Z,12.82
2023-02-27T01:22:23.385Z,12.15
2023-02-27T01:24:50.447Z,10.13
2023-02-27T01:27:17.629Z,10.48
2023-02-27T01:29:44.975Z,9.95
2023-02-27T01:32:12.138Z,11.13
2023-02-27T01:34:39.147Z,11.68
2023-02-27T01:37:06.201Z,10.75
2023-02-27T01:39:33.279Z,12.27
2023-02-27T01:42:01.206Z,11.15
2023-02-27T01:44:30.311Z,13.57
2023-02-27T01:46:57.792Z,11.90
2023-02-27T01:49:29.856Z,26.77
2023-02-27T01:52:06.411Z,32.78
2023-02-27T01:54:37.950Z,33.92
2023-02-27T01:57:06.941Z,34.83
2023-02-27T01:59:36.297Z,28.85
2023-02-27T02:02:09.735Z,29.35
2023-02-27T02:04:39.530Z,30.88
2023-02-27T02:07:08.892Z,27.00
2023-02-27T02:09:44.838Z,25.63
2023-02-27T02:12:16.192Z,27.65
2023-02-27T02:14:43.333Z,26.55
2023-02-27T02:17:13.547Z,24.48
2023-02-27T02:20:12.560Z,24.90
2023-02-27T02:23:03.067Z,21.83
2023-02-27T02:25:56.378Z,19.45
2023-02-27T02:28:42.328Z,20.67
2023-02-27T02:31:51.194Z,15.98
2023-02-27T02:35:05.331Z,14.52
2023-02-27T02:37:53.374Z,11.65
2023-02-27T02:40:58.912Z,12.80
2023-02-27T02:44:04.772Z,10.38
2023-02-27T02:47:13.981Z,10.93
2023-02-27T02:50:01.235Z,9.80
2023-02-27T02:52:59.102Z,10.27
2023-02-27T02:56:04.977Z,13.00
2023-02-27T02:58:38.182Z,11.88
2023-02-27T03:01:36.673Z,14.65
2023-02-27T03:04:15.158Z,12.57
2023-02-27T03:06:48.167Z,11.65
2023-02-27T03:09:29.150Z,11.02
2023-02-27T03:11:59.246Z,11.73
2023-02-27T03:14:54.846Z,13.32
2023-02-27T03:17:38.984Z,15.38
2023-02-27T03:20:14.465Z,23.35
2023-02-27T03:22:47.583Z,25.80
2023-02-27T03:25:15.934Z,38.80
2023-02-27T03:27:50.611Z,32.85
2023-02-27T03:30:43.268Z,31.10
2023-02-27T03:33:23.249Z,31.67
2023-02-27T03:36:10.420Z,28.75
2023-02-27T03:38:52.143Z,29.88
2023-02-27T03:41:36.718Z,29.65
2023-02-27T03:44:23.373Z,27.58
2023-02-27T03:46:50.591Z,26.27
2023-02-27T03:49:18.239Z,22.60
2023-02-27T03:51:45.621Z,20.45
2023-02-27T03:54:20.568Z,27.08
2023-02-27T03:56:52.098Z,27.23
2023-02-27T03:59:19.519Z,22.83
2023-02-27T04:01:46.934Z,27.25
2023-02-27T04:04:16.821Z,19.25
2023-02-27T04:07:15.332Z,24.60
2023-02-27T04:10:08.610Z,24.75
2023-02-27T04:12:48.594Z,22.45
2023-02-27T04:15:27.585Z,13.85
2023-02-27T04:18:12.493Z,16.38
2023-02-27T04:20:48.877Z,14.05
2023-02-27T04:23:28.852Z,14.38
2023-02-27T04:26:10.964Z,13.80
2023-02-27T04:29:04.763Z,13.95
2023-02-27T04:31:52.875Z,13.25
2023-02-27T04:34:31.414Z,12.35
2023-02-27T04:37:23.011Z,10.48
2023-02-27T04:39:53.538Z,11.27
2023-02-27T04:42:32.548Z,11.90
2023-02-27T04:45:04.444Z,10.60
2023-02-27T04:47:41.159Z,11.68
2023-02-27T04:50:13.794Z,10.32
2023-02-27T04:52:55.308Z,10.05
2023-02-27T04:55:33.161Z,9.38
2023-02-27T04:58:09.636Z,9.80
2023-02-27T05:00:40.061Z,11.85
2023-02-27T05:03:22.284Z,9.88
2023-02-27T05:05:53.251Z,11.93
2023-02-27T05:09:06.630Z,11.93
2023-02-27T05:11:44.780Z,12.88
2023-02-27T05:14:27.055Z,10.63
2023-02-27T05:17:00.893Z,12.20
2023-02-27T05:19:28.122Z,11.50
2023-02-27T05:22:04.082Z,13.73
2023-02-27T05:24:47.123Z,15.15
2023-02-27T05:27:22.710Z,11.10
2023-02-27T05:29:58.324Z,10.48
2023-02-27T05:32:40.376Z,9.80
2023-02-27T05:35:16.301Z,10.48
2023-02-27T05:38:12.820Z,10.23
2023-02-27T05:40:58.193Z,11.40
2023-02-27T05:43:43.319Z,9.40
2023-02-27T05:46:33.707Z,12.63
2023-02-27T05:49:11.380Z,13.18
2023-02-27T05:51:40.877Z,11.88
2023-02-27T05:54:22.903Z,9.85
2023-02-27T05:56:53.652Z,11.43
2023-02-27T05:59:32.584Z,10.45
2023-02-27T06:01:59.904Z,10.70
2023-02-27T06:04:27.211Z,10.75
2023-02-27T06:06:54.545Z,11.45
2023-02-27T06:09:22.306Z,9.23
2023-02-27T06:11:49.310Z,11.68
2023-02-27T06:14:16.326Z,11.82
2023-02-27T06:16:43.452Z,10.73
2023-02-27T06:19:10.552Z,10.85
2023-02-27T06:21:37.615Z,12.00
2023-02-27T06:24:04.678Z,11.90
2023-02-27T06:26:31.719Z,13.18
2023-02-27T06:28:59.802Z,11.55
2023-02-27T06:31:26.885Z,15.02
2023-02-27T06:33:55.829Z,11.45
2023-02-27T06:36:23.306Z,11.88
2023-02-27T06:38:50.556Z,11.65
2023-02-27T06:41:17.648Z,20.88
2023-02-27T06:43:44.802Z,22.92
2023-02-27T06:46:11.942Z,23.88
2023-02-27T06:48:38.978Z,24.95
2023-02-27T06:51:06.261Z,21.30
2023-02-27T06:53:33.749Z,24.85
2023-02-27T06:56:00.936Z,23.90
2023-02-27T06:58:28.028Z,21.10
2023-02-27T07:00:55.218Z,18.67
2023-02-27T07:03:22.313Z,18.90
2023-02-27T07:05:49.414Z,14.20
2023-02-27T07:08:17.681Z,17.80
2023-02-27T07:10:47.313Z,22.35
2023-02-27T07:13:17.308Z,19.88
2023-02-27T07:15:45.567Z,14.68
2023-02-27T07:18:12.776Z,20.42
2023-02-27T07:20:40.445Z,17.60
2023-02-27T07:23:07.653Z,12.80
2023-02-27T07:25:34.737Z,13.38
2023-02-27T07:28:01.987Z,16.33
2023-02-27T07:30:31.070Z,18.25
2023-02-27T07:32:58.410Z,22.13
2023-02-27T07:35:25.541Z,21.67
2023-02-27T07:37:52.915Z,24.17
2023-02-27T07:40:20.169Z,23.85
2023-02-27T07:42:52.991Z,27.80
2023-02-27T07:45:20.564Z,23.63
2023-02-27T07:47:47.648Z,33.38
2023-02-27T07:50:15.120Z,26.50
2023-02-27T07:52:43.135Z,25.38
2023-02-27T07:55:12.003Z,23.80
2023-02-27T07:57:39.102Z,26.40
2023-02-27T08:00:07.394Z,23.13
2023-02-27T08:02:34.485Z,20.85
2023-02-27T08:05:01.518Z,19.08
2023-02-27T08:07:28.621Z,22.65
2023-02-27T08:09:55.664Z,19.33
2023-02-27T08:12:22.772Z,21.40
2023-02-27T08:14:49.916Z,18.00
2023-02-27T08:17:17.149Z,19.15
2023-02-27T08:19:44.197Z,21.98
2023-02-27T08:22:12.573Z,19.52
2023-02-27T08:24:40.659Z,19.02
2023-02-27T08:27:08.064Z,19.73
2023-02-27T08:29:35.352Z,21.92
2023-02-27T08:32:02.902Z,21.52
2023-02-27T08:34:30.588Z,21.15
2023-02-27T08:36:57.713Z,29.27
2023-02-27T08:39:24.757Z,20.73
2023-02-27T08:41:55.520Z,25.45
2023-02-27T08:44:22.579Z,26.80
2023-02-27T08:46:49.788Z,24.80
2023-02-27T08:49:18.203Z,17.75
2023-02-27T08:51:46.125Z,18.00
2023-02-27T08:54:13.297Z,19.42
2023-02-27T08:56:40.425Z,14.82
2023-02-27T08:59:07.576Z,15.73
2023-02-27T09:01:34.807Z,21.60
2023-02-27T09:04:03.524Z,19.98
2023-02-27T09:06:32.173Z,18.98
2023-02-27T09:09:00.127Z,16.17
2023-02-27T09:11:28.675Z,15.20
2023-02-27T09:13:56.232Z,20.58
2023-02-27T09:16:24.060Z,28.77
2023-02-27T09:18:51.737Z,23.05
2023-02-27T09:21:19.103Z,24.52
2023-02-27T09:23:46.163Z,25.60
2023-02-27T09:26:13.367Z,22.75
2023-02-27T09:28:40.573Z,19.55
2023-02-27T09:31:08.960Z,17.95
2023-02-27T09:33:37.487Z,20.55
2023-02-27T09:36:06.314Z,18.95
2023-02-27T09:38:35.304Z,17.73
2023-02-27T09:41:03.832Z,22.92
2023-02-27T09:43:43.407Z,26.05
2023-02-27T09:46:18.106Z,22.23
2023-02-27T09:49:00.557Z,23.13
2023-02-27T09:51:29.116Z,25.40
2023-02-27T09:54:01.456Z,18.92
2023-02-27T09:56:54.718Z,14.07
2023-02-27T09:59:36.305Z,15.75
2023-02-27T10:02:27.945Z,15.55
2023-02-27T10:05:09.934Z,18.42
2023-02-27T10:08:01.142Z,17.70
2023-02-27T10:10:43.548Z,17.58
2023-02-27T10:13:48.413Z,16.17
2023-02-27T10:16:19.543Z,14.93
2023-02-27T10:19:06.311Z,14.65
2023-02-27T10:21:41.252Z,16.10
2023-02-27T10:24:17.388Z,16.45
2023-02-27T10:26:46.181Z,12.80
2023-02-27T10:29:28.380Z,15.55
2023-02-27T10:32:04.039Z,16.23
2023-02-27T10:34:33.211Z,14.05
2023-02-27T10:37:05.466Z,15.10
2023-02-27T10:39:49.268Z,15.55
2023-02-27T10:42:17.726Z,13.95
2023-02-27T10:44:45.055Z,15.60
2023-02-27T10:47:16.313Z,14.50
2023-02-27T10:49:44.250Z,15.02
2023-02-27T10:52:13.912Z,13.15
2023-02-27T10:54:42.508Z,12.80
2023-02-27T10:57:28.027Z,14.95
2023-02-27T11:00:00.956Z,13.32
2023-02-27T11:02:50.455Z,13.50
2023-02-27T11:05:30.054Z,14.85
2023-02-27T11:08:11.074Z,16.85
2023-02-27T11:10:48.040Z,14.77
2023-02-27T11:13:23.206Z,14.15
2023-02-27T11:16:05.473Z,14.02
2023-02-27T11:18:32.919Z,16.02
2023-02-27T11:21:23.244Z,16.60
2023-02-27T11:23:57.831Z,16.63
2023-02-27T11:26:34.766Z,12.98
2023-02-27T11:29:18.467Z,13.63
2023-02-27T11:31:59.266Z,14.48
2023-02-27T11:34:40.983Z,13.90
2023-02-27T11:37:32.520Z,16.98
2023-02-27T11:40:11.074Z,18.95
2023-02-27T11:42:48.057Z,16.70
2023-02-27T11:46:16.232Z,17.55
2023-02-27T11:48:25.817Z,16.88
2023-02-27T11:51:04.989Z,18.02
2023-02-27T11:53:37.565Z,18.73
2023-02-27T11:56:08.964Z,19.65
2023-02-27T11:58:44.358Z,20.50
2023-02-27T12:01:23.556Z,20.58
2023-02-27T12:04:12.135Z,18.70
2023-02-27T12:06:47.104Z,19.25
2023-02-27T12:09:34.435Z,19.13
2023-02-27T12:12:06.301Z,20.95
2023-02-27T12:14:56.687Z,17.42
2023-02-27T12:17:47.771Z,17.75
2023-02-27T12:20:22.137Z,18.52
2023-02-27T12:22:53.110Z,21.02
2023-02-27T12:25:22.967Z,20.83
2023-02-27T12:28:00.525Z,19.85
2023-02-27T12:30:39.114Z,21.58
2023-02-27T12:33:11.895Z,21.02
2023-02-27T12:35:43.195Z,30.45
2023-02-27T12:38:15.504Z,25.98
2023-02-27T12:41:04.259Z,24.40
2023-02-27T12:43:38.166Z,22.15
2023-02-27T12:46:05.345Z,24.35
2023-02-27T12:48:35.212Z,23.55
2023-02-27T12:51:40.801Z,24.13
2023-02-27T12:54:15.668Z,25.65
2023-02-27T12:56:42.689Z,29.52
2023-02-27T12:59:27.565Z,24.10
2023-02-27T13:02:26.885Z,24.85
2023-02-27T13:05:11.983Z,27.17
2023-02-27T13:08:14.978Z,24.88
2023-02-27T13:11:19.570Z,25.77
2023-02-27T13:13:57.177Z,26.80
2023-02-27T13:16:33.791Z,29.75
2023-02-27T13:19:17.609Z,29.10
2023-02-27T13:21:55.744Z,27.55
2023-02-27T13:24:31.044Z,29.00
2023-02-27T13:27:21.001Z,28.77
2023-02-27T13:29:57.457Z,27.67
2023-02-27T13:32:43.981Z,23.90
2023-02-27T13:35:43.833Z,28.50
2023-02-27T13:38:33.917Z,29.25
2023-02-27T13:41:28.959Z,27.67
2023-02-27T13:44:20.174Z,24.70
2023-02-27T13:46:47.725Z,27.40
2023-02-27T13:49:28.862Z,27.33
2023-02-27T13:51:59.913Z,29.67
2023-02-27T13:54:39.344Z,29.48
2023-02-27T13:57:17.227Z,27.48
2023-02-27T13:59:53.284Z,30.10
2023-02-27T14:02:31.247Z,28.52
2023-02-27T14:05:03.245Z,30.83
2023-02-27T14:07:34.445Z,32.45
2023-02-27T14:10:11.859Z,30.40
2023-02-27T14:12:45.682Z,33.53
2023-02-27T14:15:22.580Z,32.55
2023-02-27T14:18:12.670Z,32.92
2023-02-27T14:20:43.063Z,32.28
2023-02-27T14:23:16.065Z,32.92
2023-02-27T14:26:02.608Z,31.02
2023-02-27T14:28:50.931Z,36.95
2023-02-27T14:31:32.602Z,37.88
2023-02-27T14:34:06.118Z,35.30
